Terminal Aerodrome Forecast
Issued by NWS

Home | Current Version | Previous Version | Text Only | Print | Product List | Glossary On
Versions: 1 2 3 4 5 6 7 8 9 10 11 12 13 14 15 16 17 18 19 20 21 22 23 24
000
FTAK31 PAJN 301100
TAFAYA
TAF
PAYA 301130Z 3012/3112 VRB03KT 1/4SM FG VV002
     FM301600 30005KT P6SM VCFG OVC004
     FM301900 25009KT P6SM FEW008
     FM310400 26004KT P6SM FEW004
     FM310800 26004KT P6SM OVC010
      AMD LTD TO CLD VIS AND WIND 3101/3110=

USA.gov is the U.S. government's official web portal to all federal, state and local government web resources and services.